Time;durP1;ratioP1;P1;durP2;ratioP2;P2;SDS_P1;SDS_P2;PMS_P1;PMS_P2;Temp;Humidity;BMP_temperature;BMP_pressure;BME280_temperature;BME280_humidity;BME280_pressure;Samples;Min_cycle;Max_cycle;Signal;HPM_P1;HPM_P2
2021/06/01 00:00:32;;;;;;;2.93;2.50;;;;;;;22.58;54.83;99277.75;2081723;28;20406;-49
2021/06/01 00:01:36;;;;;;;3.63;2.30;;;;;;;22.58;55.00;99280.50;2084748;28;20052;-49
2021/06/01 00:02:36;;;;;;;4.00;2.50;;;;;;;22.58;54.93;99280.50;2088039;28;20047;-51
2021/06/01 00:03:37;;;;;;;3.37;2.00;;;;;;;22.59;55.04;99278.63;2080420;28;20167;-47
2021/06/01 00:04:37;;;;;;;2.60;2.00;;;;;;;22.59;54.81;99274.00;2083949;28;20064;-52
2021/06/01 00:05:38;;;;;;;4.23;2.30;;;;;;;22.59;55.09;99274.00;2089104;28;20398;-51
2021/06/01 00:06:40;;;;;;;2.47;2.27;;;;;;;22.58;55.05;99272.28;2087223;28;20081;-51
2021/06/01 00:07:40;;;;;;;;;;;;;;;22.55;55.20;99267.16;2082627;28;20586;-52
2021/06/01 00:08:41;;;;;;;2.65;2.20;;;;;;;22.55;54.96;99272.66;2086001;28;19975;-50
2021/06/01 00:09:42;;;;;;;5.20;2.75;;;;;;;22.55;54.95;99275.41;2088644;28;20381;-50
2021/06/01 00:10:42;;;;;;;3.40;2.03;;;;;;;22.57;54.93;99277.97;2089493;28;20024;-48
2021/06/01 00:11:43;;;;;;;3.60;2.60;;;;;;;22.57;54.97;99270.59;2083054;28;20510;-51
2021/06/01 00:12:44;;;;;;;3.85;2.28;;;;;;;22.58;54.99;99272.28;2080928;28;20444;-48
2021/06/01 00:13:45;;;;;;;3.13;2.10;;;;;;;22.58;54.87;99269.53;2080645;28;20018;-50
2021/06/01 00:14:45;;;;;;;3.40;2.27;;;;;;;22.58;55.01;99269.53;2081018;28;20075;-49
2021/06/01 00:15:46;;;;;;;2.90;2.17;;;;;;;22.58;55.18;99271.44;2081956;28;20060;-51
2021/06/01 00:16:47;;;;;;;2.73;2.10;;;;;;;22.57;54.92;99273.31;2080715;28;20507;-50
2021/06/01 00:17:48;;;;;;;5.25;2.30;;;;;;;22.56;55.24;99274.34;2089211;28;20111;-51
2021/06/01 00:18:50;;;;;;;3.43;2.40;;;;;;;22.57;54.99;99270.59;2088777;28;20036;-52
2021/06/01 00:19:50;;;;;;;2.60;2.00;;;;;;;22.59;55.19;99279.50;2089569;28;20067;-48
2021/06/01 00:20:51;;;;;;;3.33;2.33;;;;;;;22.59;54.97;99274.00;2088878;28;20032;-51
2021/06/01 00:21:51;;;;;;;2.87;2.00;;;;;;;22.59;55.03;99270.41;2081660;28;20091;-48
2021/06/01 00:22:52;;;;;;;2.77;2.40;;;;;;;22.58;55.12;99272.28;2088138;28;20305;-52
2021/06/01 00:23:54;;;;;;;2.07;1.60;;;;;;;22.58;54.98;99271.44;2081663;28;20033;-51
2021/06/01 00:24:54;;;;;;;2.80;2.30;;;;;;;22.57;55.00;99270.59;2083447;28;20036;-50
2021/06/01 00:25:55;;;;;;;4.43;2.10;;;;;;;22.57;54.99;99265.09;2082042;28;20036;-51
2021/06/01 00:26:55;;;;;;;2.80;2.00;;;;;;;22.57;55.02;99262.34;2084798;28;20032;-51
2021/06/01 00:27:56;;;;;;;4.47;2.70;;;;;;;22.58;54.95;99261.28;2075994;28;20103;-49
2021/06/01 00:28:56;;;;;;;2.90;2.60;;;;;;;22.57;54.94;99262.34;2078519;28;20040;-51
2021/06/01 00:29:57;;;;;;;2.07;1.87;;;;;;;22.58;55.20;99260.44;2084118;28;20045;-51
2021/06/01 00:30:57;;;;;;;4.73;2.57;;;;;;;22.56;55.10;99257.03;2084723;28;20025;-50
2021/06/01 00:31:57;;;;;;;2.40;2.20;;;;;;;22.57;54.98;99254.09;2089318;28;20081;-51
2021/06/01 00:32:58;;;;;;;2.27;2.07;;;;;;;22.56;54.86;99257.88;2080963;28;20032;-51
2021/06/01 00:33:59;;;;;;;2.60;2.30;;;;;;;22.56;55.20;99263.38;2086726;28;20048;-51
2021/06/01 00:34:59;;;;;;;2.30;2.10;;;;;;;22.57;54.91;99265.09;2081337;28;20083;-52
2021/06/01 00:36:00;;;;;;;3.13;2.17;;;;;;;22.57;54.97;99265.09;2083852;28;20047;-49
2021/06/01 00:37:00;;;;;;;2.93;2.50;;;;;;;22.57;55.21;99270.59;2081259;28;20029;-50
2021/06/01 00:38:02;;;;;;;2.13;1.83;;;;;;;22.57;54.99;99269.75;2085059;28;20599;-50
2021/06/01 00:39:06;;;;;;;2.78;2.00;;;;;;;22.55;55.16;99260.84;2079523;28;20370;-50
2021/06/01 00:40:07;;;;;;;2.65;2.10;;;;;;;22.56;55.33;99260.63;2080148;28;20071;-51
2021/06/01 00:41:07;;;;;;;2.75;2.10;;;;;;;22.56;55.34;99268.00;2086261;28;20021;-50
2021/06/01 00:42:08;;;;;;;2.97;2.27;;;;;;;22.56;55.32;99263.38;2088916;28;20025;-50
2021/06/01 00:43:08;;;;;;;3.37;2.07;;;;;;;22.58;54.94;99271.44;2082605;28;20030;-51
2021/06/01 00:44:09;;;;;;;4.53;2.40;;;;;;;22.55;55.34;99267.16;2081717;28;20028;-51
2021/06/01 00:45:16;;;;;;;2.97;2.10;;;;;;;22.57;55.06;99264.25;2088868;28;20024;-51
2021/06/01 00:46:17;;;;;;;2.45;2.00;;;;;;;22.56;55.08;99263.38;2083201;28;20563;-49
2021/06/01 00:47:17;;;;;;;9.30;2.50;;;;;;;22.55;55.23;99260.84;2087081;28;20029;-50
2021/06/01 00:48:17;;;;;;;3.10;2.40;;;;;;;22.54;55.17;99262.72;2085958;28;20087;-49
2021/06/01 00:49:18;;;;;;;2.27;1.83;;;;;;;22.54;55.27;99262.72;2088394;28;20063;-51
2021/06/01 00:50:24;;;;;;;3.13;2.23;;;;;;;22.53;55.49;99252.78;2088113;28;20027;-49
2021/06/01 00:51:25;;;;;;;2.85;2.08;;;;;;;22.54;55.19;99254.50;2081764;28;20032;-50
2021/06/01 00:52:25;;;;;;;3.00;2.30;;;;;;;22.54;55.18;99260.00;2085608;28;20120;-47
2021/06/01 00:53:26;;;;;;;2.77;2.03;;;;;;;22.53;55.13;99244.53;2084518;28;20053;-49
2021/06/01 00:54:27;;;;;;;3.27;2.07;;;;;;;22.53;55.30;99250.03;2081100;28;20493;-48
2021/06/01 00:55:28;;;;;;;2.85;2.22;;;;;;;22.54;55.08;99248.13;2082755;28;20032;-52
2021/06/01 00:56:32;;;;;;;3.97;2.43;;;;;;;22.53;54.95;99250.03;2083048;28;20108;-52
2021/06/01 00:57:33;;;;;;;3.13;2.40;;;;;;;22.54;55.02;99243.50;2077647;28;20029;-51
2021/06/01 00:58:34;;;;;;;2.20;2.00;;;;;;;22.53;55.03;99240.94;2081031;28;20309;-51
2021/06/01 00:59:35;;;;;;;3.17;2.33;;;;;;;22.54;55.23;99240.75;2088865;28;20321;-51
2021/06/01 01:01:21;;;;;;;3.03;1.87;;;;;;;22.53;55.34;99244.53;2085137;28;20031;-50
2021/06/01 01:01:56;;;;;;;3.28;2.92;;;;;;;22.52;55.20;99242.00;2069478;28;20116;-50
2021/06/01 01:02:57;;;;;;;2.70;2.27;;;;;;;22.52;55.57;99240.09;2082226;28;20308;-48
2021/06/01 01:03:57;;;;;;;2.60;2.40;;;;;;;22.51;55.20;99243.88;2085982;28;20021;-51
2021/06/01 01:04:58;;;;;;;2.77;2.10;;;;;;;22.52;55.27;99245.59;2083715;28;20025;-49
2021/06/01 01:06:06;;;;;;;4.17;2.07;;;;;;;22.51;55.29;99249.38;2081045;28;20024;-52
2021/06/01 01:07:17;;;;;;;4.60;3.10;;;;;;;22.51;55.12;99249.38;2080376;28;20045;-51
2021/06/01 01:08:46;;;;;;;2.83;2.20;;;;;;;22.49;55.17;99246.00;2083768;28;20346;-49
2021/06/01 01:09:49;;;;;;;2.22;2.03;;;;;;;22.50;55.12;99253.16;2088483;28;20017;-52
2021/06/01 01:10:53;;;;;;;4.00;2.45;;;;;;;22.50;55.19;99244.94;2089333;28;20084;-48
2021/06/01 01:12:17;;;;;;;3.30;2.22;;;;;;;22.49;55.32;99240.50;2085797;28;20035;-51
2021/06/01 01:13:19;;;;;;;2.38;2.17;;;;;;;22.49;55.17;99240.50;2084982;28;20041;-49
2021/06/01 01:14:28;;;;;;;2.53;2.00;;;;;;;22.49;55.22;99240.50;2081262;28;20380;-51
2021/06/01 01:15:30;;;;;;;2.95;2.47;;;;;;;22.48;55.53;99236.88;2081952;28;20132;-51
2021/06/01 01:16:32;;;;;;;2.72;2.50;;;;;;;22.50;55.26;99236.69;2080624;28;20025;-50
2021/06/01 01:17:45;;;;;;;3.10;2.28;;;;;;;22.48;55.55;99239.63;2080145;28;20025;-49
2021/06/01 01:18:54;;;;;;;2.42;2.22;;;;;;;22.48;55.39;99233.28;2080775;28;20691;-52
2021/06/01 01:20:16;;;;;;;2.35;2.13;;;;;;;22.48;55.32;99233.28;2089355;28;20033;-51
2021/06/01 01:21:23;;;;;;;;;;;;;;;22.46;55.32;99238.09;2081558;28;20055;-50
2021/06/01 01:22:25;;;;;;;2.55;2.30;;;;;;;22.47;55.24;99237.09;2085562;28;20246;-47
2021/06/01 01:23:28;;;;;;;2.95;2.10;;;;;;;22.46;55.40;99235.38;2087065;28;20028;-50
2021/06/01 01:24:50;;;;;;;2.83;2.50;;;;;;;22.46;55.31;99229.88;2082488;28;20644;-49
2021/06/01 01:26:20;;;;;;;2.47;2.10;;;;;;;22.46;55.25;99235.38;2086285;28;20037;-51
2021/06/01 01:27:32;;;;;;;2.40;2.05;;;;;;;22.46;55.57;99235.38;2060968;28;20042;-48
2021/06/01 01:29:00;;;;;;;2.40;2.20;;;;;;;22.44;55.33;99232.81;2083267;28;20469;-51
2021/06/01 01:30:05;;;;;;;2.78;2.20;;;;;;;22.45;55.41;99236.41;2084873;28;20041;-51
2021/06/01 01:31:25;;;;;;;2.88;2.17;;;;;;;22.45;55.47;99228.19;2085040;28;20040;-50
2021/06/01 01:32:48;;;;;;;3.05;2.25;;;;;;;22.45;55.33;99239.16;2081881;28;20025;-52
2021/06/01 01:33:49;;;;;;;3.67;2.53;;;;;;;22.45;55.39;99234.53;2082355;28;20478;-50
2021/06/01 01:34:52;;;;;;;3.38;2.50;;;;;;;22.46;55.50;99233.50;2080760;28;20064;-50
2021/06/01 01:35:57;;;;;;;3.20;2.00;;;;;;;22.45;55.31;99233.69;2081933;28;20029;-49
2021/06/01 01:37:00;;;;;;;3.05;2.65;;;;;;;22.45;55.29;99230.94;2088490;28;20080;-51
2021/06/01 01:38:02;;;;;;;5.13;2.40;;;;;;;22.46;55.18;99229.88;2086763;28;20040;-49
2021/06/01 01:39:03;;;;;;;;;;;;;;;22.44;55.34;99229.22;2086771;28;20100;-48
2021/06/01 01:40:11;;;;;;;2.53;2.00;;;;;;;22.44;55.25;99226.47;2082670;28;19924;-51
2021/06/01 01:41:14;;;;;;;2.50;2.20;;;;;;;22.45;55.08;99230.94;2084686;28;20052;-49
2021/06/01 01:42:17;;;;;;;4.53;2.50;;;;;;;22.45;55.01;99228.19;2088387;28;20421;-51
2021/06/01 01:43:23;;;;;;;2.72;2.30;;;;;;;22.45;55.22;99229.03;2082686;28;20030;-50
2021/06/01 01:44:25;;;;;;;1.98;1.77;;;;;;;22.45;55.45;99229.03;2084459;28;20037;-51
2021/06/01 01:45:31;;;;;;;2.58;2.28;;;;;;;22.45;55.31;99230.94;2082551;28;20089;-51
2021/06/01 01:48:58;;;;;;;3.97;3.00;;;;;;;22.45;55.16;99228.19;2086114;28;20111;-50
2021/06/01 01:49:22;;;;;;;3.83;2.65;;;;;;;22.44;55.39;99223.72;2083744;28;20082;-50
2021/06/01 01:50:23;;;;;;;2.47;2.20;;;;;;;22.44;55.36;99216.34;2083048;28;20044;-49
2021/06/01 01:51:32;;;;;;;2.77;2.10;;;;;;;22.43;55.42;99220.13;2082856;28;20029;-50
2021/06/01 01:52:39;;;;;;;3.55;2.20;;;;;;;22.45;55.43;99228.19;2081820;28;20041;-50
2021/06/01 01:53:52;;;;;;;3.28;2.35;;;;;;;22.44;55.19;99220.97;2082308;28;20347;-49
2021/06/01 01:54:55;;;;;;;2.75;2.42;;;;;;;22.43;55.35;99220.13;2082050;28;20048;-49
2021/06/01 01:55:55;;;;;;;2.65;2.42;;;;;;;22.44;55.24;99216.34;2084304;28;20159;-48
2021/06/01 01:57:07;;;;;;;3.23;2.10;;;;;;;22.44;55.50;99215.47;2083447;28;20144;-48
2021/06/01 01:58:08;;;;;;;2.90;2.13;;;;;;;22.44;55.34;99215.47;2080202;28;20033;-47
2021/06/01 01:59:14;;;;;;;3.57;2.20;;;;;;;22.43;55.38;99216.53;2084040;28;20033;-52
2021/06/01 02:00:17;;;;;;;3.38;2.40;;;;;;;22.44;55.33;99215.47;2082221;28;20037;-48
2021/06/01 02:01:18;;;;;;;2.30;2.10;;;;;;;22.45;55.39;99211.72;2081981;28;20025;-48
2021/06/01 02:02:19;;;;;;;4.13;2.47;;;;;;;22.45;55.16;99217.19;2082408;28;20112;-51
2021/06/01 02:03:22;;;;;;;2.90;2.00;;;;;;;22.45;55.33;99211.72;2085591;28;20387;-49
2021/06/01 02:04:24;;;;;;;2.80;2.30;;;;;;;22.44;55.29;99216.34;2086811;28;20127;-52
2021/06/01 02:05:25;;;;;;;3.88;2.53;;;;;;;22.44;55.04;99215.47;2088424;28;20029;-49
2021/06/01 02:06:26;;;;;;;6.83;2.40;;;;;;;22.45;55.17;99212.56;2082832;28;20402;-50
2021/06/01 02:07:27;;;;;;;2.78;2.20;;;;;;;22.46;55.45;99222.50;2087299;28;20078;-52
2021/06/01 02:08:27;;;;;;;3.23;2.30;;;;;;;22.46;55.49;99213.41;2082194;28;20026;-50
2021/06/01 02:09:27;;;;;;;2.60;2.00;;;;;;;22.44;55.37;99216.34;2084441;28;20033;-49
2021/06/01 02:10:29;;;;;;;2.90;2.10;;;;;;;22.45;55.36;99217.19;2086254;28;20399;-51
2021/06/01 02:11:29;;;;;;;3.38;2.40;;;;;;;22.45;55.13;99211.72;2081982;28;20030;-51
2021/06/01 02:12:30;;;;;;;3.23;2.27;;;;;;;22.44;55.45;99209.97;2081958;28;20537;-48
2021/06/01 02:13:32;;;;;;;2.20;2.00;;;;;;;22.43;55.35;99200.91;2088063;28;20026;-51
2021/06/01 02:14:32;;;;;;;2.40;2.20;;;;;;;22.43;55.20;99209.13;2089890;28;20033;-51
2021/06/01 02:15:33;;;;;;;2.70;2.40;;;;;;;22.44;55.03;99201.75;2086744;28;20029;-51
2021/06/01 02:16:40;;;;;;;2.23;2.03;;;;;;;22.43;55.13;99208.28;2082037;28;20059;-51
2021/06/01 02:17:40;;;;;;;3.13;1.90;;;;;;;22.43;55.19;99208.28;2084693;28;20040;-49
2021/06/01 02:18:42;;;;;;;2.87;2.27;;;;;;;22.44;55.45;99207.25;2088662;28;20068;-49
2021/06/01 02:19:43;;;;;;;;;;;;;;;22.40;55.27;99211.44;2085135;28;20037;-49
2021/06/01 02:20:45;;;;;;;2.28;2.08;;;;;;;22.41;55.52;99210.38;2086151;28;19919;-50
2021/06/01 02:24:51;;;;;;;2.55;2.15;;;;;;;22.37;55.47;99200.84;2082723;28;19913;-51
2021/06/01 02:26:00;;;;;;;2.72;2.15;;;;;;;22.37;55.54;99198.94;2081340;28;20037;-50
2021/06/01 02:27:01;;;;;;;3.78;2.30;;;;;;;22.38;55.58;99199.78;2081049;28;20037;-52
2021/06/01 02:28:10;;;;;;;3.27;2.07;;;;;;;22.38;55.53;99200.63;2081816;28;20734;-48
2021/06/01 02:30:00;;;;;;;3.40;2.20;;;;;;;22.37;55.35;99198.09;2081768;28;20442;-52
2021/06/01 02:31:06;;;;;;;3.35;2.30;;;;;;;22.36;55.57;99197.22;2068586;28;20039;-49
2021/06/01 02:32:08;;;;;;;2.20;2.00;;;;;;;22.37;55.37;99196.19;2086381;28;20597;-51
2021/06/01 02:33:09;;;;;;;2.42;2.22;;;;;;;22.37;55.46;99193.47;2086036;28;20108;-49
2021/06/01 02:34:12;;;;;;;2.45;2.25;;;;;;;22.37;55.48;99181.63;2081066;28;20040;-49
2021/06/01 02:35:19;;;;;;;2.88;2.30;;;;;;;22.38;55.39;99186.91;2088598;28;20346;-50
2021/06/01 02:36:20;;;;;;;2.72;2.45;;;;;;;22.38;55.11;99188.81;2087298;28;20177;-49
2021/06/01 02:37:21;;;;;;;3.95;1.95;;;;;;;22.39;55.13;99183.13;2089365;28;20102;-48
2021/06/01 02:38:21;;;;;;;2.70;2.07;;;;;;;22.39;55.22;99185.88;2086759;28;20478;-50
2021/06/01 02:39:24;;;;;;;4.53;2.80;;;;;;;22.39;55.02;99193.25;2087927;28;20647;-51
2021/06/01 02:40:26;;;;;;;2.45;2.25;;;;;;;22.40;54.93;99194.97;2086891;28;20101;-52
2021/06/01 02:41:27;;;;;;;2.47;2.00;;;;;;;22.40;55.13;99194.97;2081677;28;20025;-50
2021/06/01 02:42:27;;;;;;;2.50;1.80;;;;;;;22.40;55.32;99200.47;2086551;28;20495;-52
2021/06/01 02:43:29;;;;;;;3.40;2.27;;;;;;;22.41;55.28;99199.41;2082325;28;20033;-50
2021/06/01 02:44:31;;;;;;;2.33;1.95;;;;;;;22.40;55.16;99195.81;2078060;28;20501;-49
2021/06/01 02:45:35;;;;;;;2.70;2.20;;;;;;;22.40;54.96;99204.03;2075336;28;20152;-52
2021/06/01 02:46:37;;;;;;;3.45;2.15;;;;;;;22.40;55.05;99204.03;2082039;28;20112;-50
2021/06/01 02:47:39;;;;;;;2.58;2.15;;;;;;;22.40;55.27;99208.69;2085067;28;20060;-50
2021/06/01 02:48:39;;;;;;;2.50;2.13;;;;;;;22.40;55.20;99219.69;2081534;28;20029;-51
2021/06/01 02:49:40;;;;;;;2.87;1.93;;;;;;;22.40;55.24;99225.16;2084418;28;20033;-51
2021/06/01 02:50:43;;;;;;;3.43;2.67;;;;;;;22.40;55.17;99225.16;2085426;28;20038;-49
2021/06/01 02:51:45;;;;;;;4.72;2.65;;;;;;;22.40;55.29;99231.50;2086224;28;20024;-52
2021/06/01 02:52:47;;;;;;;2.40;2.00;;;;;;;22.41;55.07;99240.59;2086292;28;20043;-51
2021/06/01 02:53:51;;;;;;;5.82;2.63;;;;;;;22.41;55.04;99246.06;2086491;28;20032;-51
2021/06/01 02:54:52;;;;;;;2.58;2.08;;;;;;;22.41;55.52;99243.34;2089135;28;20106;-49
2021/06/01 02:55:53;;;;;;;4.03;2.27;;;;;;;22.41;55.24;99243.34;2089342;28;20105;-49
2021/06/01 02:56:54;;;;;;;2.57;2.20;;;;;;;22.41;55.37;99243.34;2085082;28;20026;-51
2021/06/01 02:57:55;;;;;;;2.37;2.10;;;;;;;22.41;55.50;99243.34;2084738;28;20059;-51
2021/06/01 02:58:57;;;;;;;2.38;2.17;;;;;;;22.40;55.38;99236.16;2080782;28;20113;-51
2021/06/01 02:59:57;;;;;;;2.60;2.28;;;;;;;22.40;55.30;99230.66;2089382;28;20032;-51
2021/06/01 03:01:01;;;;;;;2.03;1.70;;;;;;;22.40;55.14;99227.91;2082741;28;20045;-49
2021/06/01 03:02:02;;;;;;;3.13;2.38;;;;;;;22.38;55.18;99219.00;2082212;28;20473;-51
2021/06/01 03:03:07;;;;;;;1.93;1.73;;;;;;;22.36;55.39;99213.69;2085953;28;20035;-52
2021/06/01 03:04:11;;;;;;;3.88;2.35;;;;;;;22.37;55.37;99217.31;2082252;28;20447;-49
2021/06/01 03:05:12;;;;;;;5.43;2.47;;;;;;;22.38;55.38;99210.78;2080375;28;20056;-50
2021/06/01 03:06:12;;;;;;;3.30;2.40;;;;;;;22.37;55.56;99217.31;2080416;28;20033;-52
2021/06/01 03:07:13;;;;;;;2.70;2.47;;;;;;;22.37;55.43;99226.41;2086522;28;20032;-51
2021/06/01 03:08:26;;;;;;;2.13;1.93;;;;;;;22.37;55.39;99233.78;2081495;28;20386;-52
2021/06/01 03:09:26;;;;;;;2.50;2.10;;;;;;;22.37;55.53;99236.53;2080839;28;20029;-49
2021/06/01 03:10:27;;;;;;;2.53;1.93;;;;;;;22.37;55.21;99236.53;2090376;28;20029;-50
2021/06/01 03:11:27;;;;;;;3.17;2.13;;;;;;;22.38;55.34;99246.47;2084590;28;20498;-50
2021/06/01 03:13:32;;;;;;;2.92;1.95;;;;;;;22.37;55.49;99231.06;2086027;28;20037;-50
2021/06/01 03:14:32;;;;;;;2.67;2.28;;;;;;;22.37;54.99;99236.53;2088078;28;20135;-49
2021/06/01 03:15:33;;;;;;;3.63;3.13;;;;;;;22.37;54.96;99225.56;2080994;28;20533;-55
2021/06/01 03:16:33;;;;;;;2.30;2.03;;;;;;;22.37;55.04;99225.56;2081046;28;20029;-51
2021/06/01 03:17:34;;;;;;;2.43;2.03;;;;;;;22.37;55.16;99220.06;2081986;28;20029;-49
2021/06/01 03:18:34;;;;;;;3.60;2.27;;;;;;;22.37;55.18;99214.56;2079827;28;20146;-51
2021/06/01 03:19:35;;;;;;;3.90;2.27;;;;;;;22.36;55.05;99218.34;2080044;28;20037;-48
2021/06/01 03:20:35;;;;;;;2.50;2.10;;;;;;;22.36;55.01;99227.44;2080862;28;20060;-49
2021/06/01 03:21:37;;;;;;;2.47;2.27;;;;;;;22.36;55.38;99232.06;2086652;28;20075;-51
2021/06/01 03:22:37;;;;;;;3.42;2.33;;;;;;;22.35;55.20;99227.63;2081170;28;20069;-51
2021/06/01 03:23:38;;;;;;;3.43;2.20;;;;;;;22.35;55.18;99238.63;2072578;28;20578;-49
2021/06/01 03:24:38;;;;;;;2.43;2.10;;;;;;;22.35;55.16;99235.88;2074572;28;20033;-50
2021/06/01 03:25:39;;;;;;;2.33;1.97;;;;;;;22.34;55.18;99237.78;2080033;28;20079;-49
2021/06/01 03:26:39;;;;;;;3.13;2.10;;;;;;;22.34;54.95;99232.28;2077175;28;20022;-51
2021/06/01 03:27:40;;;;;;;3.20;2.20;;;;;;;22.35;55.37;99233.97;2082042;28;20033;-49
2021/06/01 03:28:41;;;;;;;2.53;2.23;;;;;;;22.36;55.03;99232.06;2079974;28;20037;-50
2021/06/01 03:29:41;;;;;;;3.53;2.23;;;;;;;22.35;54.96;99223.00;2078723;28;20081;-52
2021/06/01 03:30:42;;;;;;;2.70;2.10;;;;;;;22.35;55.08;99225.75;2074412;28;20030;-51
2021/06/01 03:31:43;;;;;;;2.53;2.03;;;;;;;22.35;55.03;99222.16;2076682;28;20063;-50
2021/06/01 03:32:43;;;;;;;3.73;2.10;;;;;;;22.35;55.17;99224.91;2080895;28;20089;-51
2021/06/01 03:33:44;;;;;;;4.60;2.23;;;;;;;22.35;55.01;99233.97;2076653;28;20033;-49
2021/06/01 03:34:44;;;;;;;2.53;2.07;;;;;;;22.34;55.12;99236.91;2076251;28;20029;-49
2021/06/01 03:35:45;;;;;;;3.47;2.43;;;;;;;22.34;55.20;99235.03;2077200;28;20060;-49
2021/06/01 03:36:45;;;;;;;3.80;2.20;;;;;;;22.35;55.35;99238.63;2076928;28;20036;-51
2021/06/01 03:37:46;;;;;;;2.83;2.17;;;;;;;22.34;55.19;99239.66;2081579;28;20029;-49
2021/06/01 03:38:50;;;;;;;2.77;1.97;;;;;;;22.34;55.25;99242.38;2080130;28;20415;-52
2021/06/01 03:39:50;;;;;;;3.65;2.42;;;;;;;22.35;54.89;99246.84;2081738;28;20113;-50
2021/06/01 03:40:52;;;;;;;3.60;2.47;;;;;;;22.34;55.04;99247.88;2074171;28;20034;-52
2021/06/01 03:41:53;;;;;;;;;;;;;;;22.31;55.00;99242.78;2078704;28;20572;-52
2021/06/01 03:42:54;;;;;;;3.00;2.70;;;;;;;22.32;55.23;99244.47;2080114;28;19990;-52
2021/06/01 03:43:54;;;;;;;2.33;1.95;;;;;;;22.33;55.18;99243.44;2074801;28;20026;-51
2021/06/01 03:44:55;;;;;;;3.60;2.40;;;;;;;22.33;55.26;99254.44;2077580;28;20041;-51
2021/06/01 03:45:57;;;;;;;2.30;1.87;;;;;;;22.33;55.34;99251.69;2077897;28;20037;-50
2021/06/01 03:46:57;;;;;;;;;;;;;;;22.30;55.29;99263.06;2078496;28;20147;-49
2021/06/01 03:47:57;;;;;;;2.47;2.20;;;;;;;22.31;55.22;99249.13;2073868;28;19952;-51
2021/06/01 03:48:58;;;;;;;3.13;2.53;;;;;;;22.32;55.11;99253.59;2072275;28;20026;-51
2021/06/01 03:49:58;;;;;;;3.00;2.20;;;;;;;22.32;55.23;99250.84;2084355;28;20047;-52
2021/06/01 03:50:59;;;;;;;3.77;2.10;;;;;;;22.33;55.22;99251.69;2081433;28;20060;-51
2021/06/01 03:52:00;;;;;;;2.03;1.83;;;;;;;22.32;55.55;99249.97;2073744;28;20036;-48
2021/06/01 03:53:01;;;;;;;2.30;2.10;;;;;;;22.32;55.35;99249.97;2072771;28;20025;-50
2021/06/01 03:54:02;;;;;;;2.70;2.03;;;;;;;22.32;55.41;99250.84;2072681;28;20685;-50
2021/06/01 03:55:04;;;;;;;3.10;2.17;;;;;;;22.32;55.32;99249.97;2074516;28;20713;-51
2021/06/01 03:56:04;;;;;;;2.47;2.00;;;;;;;22.33;55.50;99251.69;2074017;28;20412;-50
2021/06/01 03:57:06;;;;;;;3.10;2.20;;;;;;;22.33;55.50;99246.19;2073323;28;20037;-50
2021/06/01 03:58:06;;;;;;;4.32;1.98;;;;;;;22.32;55.39;99248.09;2076593;28;20032;-51
2021/06/01 03:59:07;;;;;;;2.93;2.30;;;;;;;22.33;55.42;99240.69;2079423;28;20068;-53
2021/06/01 04:00:10;;;;;;;2.30;2.10;;;;;;;22.32;55.49;99245.34;2075977;28;20041;-47
2021/06/01 04:01:11;;;;;;;2.92;1.88;;;;;;;22.33;55.35;99240.69;2080104;28;20458;-49
2021/06/01 04:02:11;;;;;;;3.13;2.43;;;;;;;22.33;55.51;99235.22;2080584;28;20075;-52
2021/06/01 04:03:12;;;;;;;2.57;2.37;;;;;;;22.32;55.24;99238.97;2078487;28;20310;-51
2021/06/01 04:04:12;;;;;;;3.80;2.20;;;;;;;22.32;55.22;99236.22;2073177;28;20038;-52
2021/06/01 04:05:14;;;;;;;2.63;2.20;;;;;;;22.33;55.50;99240.69;2073695;28;20033;-52
2021/06/01 04:06:14;;;;;;;5.80;2.47;;;;;;;22.33;55.50;99241.56;2072841;28;20115;-51
2021/06/01 04:07:15;;;;;;;3.07;2.13;;;;;;;22.31;55.35;99237.28;2079076;28;20033;-51
2021/06/01 04:08:15;;;;;;;3.17;2.77;;;;;;;22.33;55.49;99240.69;2075051;28;20344;-51
2021/06/01 04:09:16;;;;;;;4.00;2.13;;;;;;;22.32;55.26;99234.38;2079217;28;20041;-50
2021/06/01 04:10:17;;;;;;;2.50;2.27;;;;;;;22.32;55.54;99230.75;2076557;28;20067;-49
2021/06/01 04:11:17;;;;;;;3.27;2.33;;;;;;;22.32;55.35;99238.97;2076124;28;20029;-50
2021/06/01 04:12:18;;;;;;;3.83;2.30;;;;;;;22.32;55.45;99241.72;2073439;28;20034;-48
2021/06/01 04:13:18;;;;;;;2.43;2.23;;;;;;;22.30;55.44;99230.97;2073903;28;20117;-50
2021/06/01 04:14:19;;;;;;;2.70;2.47;;;;;;;22.32;55.43;99241.72;2079364;28;20108;-51
2021/06/01 04:15:20;;;;;;;2.42;2.22;;;;;;;22.33;55.68;99240.69;2072464;28;20026;-52
2021/06/01 04:16:20;;;;;;;2.20;2.00;;;;;;;22.32;55.50;99238.97;2072949;28;20029;-51
2021/06/01 04:17:21;;;;;;;2.60;2.10;;;;;;;22.32;55.74;99238.97;2080027;28;20044;-49
2021/06/01 04:18:21;;;;;;;2.33;1.90;;;;;;;22.31;55.70;99232.66;2080267;28;20041;-50
2021/06/01 04:19:22;;;;;;;3.27;2.00;;;;;;;22.31;55.53;99232.66;2087967;28;20032;-51
2021/06/01 04:20:24;;;;;;;3.13;2.03;;;;;;;22.30;55.65;99225.47;2082512;28;20105;-47
2021/06/01 04:21:24;;;;;;;3.10;2.17;;;;;;;22.31;55.67;99237.28;2081017;28;20097;-51
2021/06/01 04:22:25;;;;;;;2.47;1.93;;;;;;;22.30;55.83;99235.59;2081646;28;20546;-52
2021/06/01 04:23:25;;;;;;;2.60;2.03;;;;;;;22.31;55.69;99237.28;2083430;28;20483;-50
2021/06/01 04:24:27;;;;;;;2.37;2.10;;;;;;;22.30;55.46;99230.13;2080414;28;20030;-50
2021/06/01 04:25:28;;;;;;;2.70;2.13;;;;;;;22.30;55.48;99230.97;2080560;28;20072;-50
2021/06/01 04:26:29;;;;;;;4.80;2.27;;;;;;;22.30;55.81;99235.59;2080953;28;20043;-52
2021/06/01 04:27:30;;;;;;;3.55;2.13;;;;;;;22.31;55.69;99240.03;2081615;28;20451;-51
2021/06/01 04:28:30;;;;;;;3.47;2.10;;;;;;;22.30;55.52;99241.09;2081445;28;20304;-51
2021/06/01 04:29:30;;;;;;;2.50;2.17;;;;;;;22.31;55.57;99240.03;2088817;28;20037;-48
2021/06/01 04:30:31;;;;;;;2.70;1.87;;;;;;;22.30;55.78;99243.84;2082482;28;20419;-51
2021/06/01 04:31:32;;;;;;;3.03;2.20;;;;;;;22.31;55.63;99237.28;2088682;28;20041;-49
2021/06/01 04:32:33;;;;;;;2.83;2.40;;;;;;;22.31;55.61;99242.78;2084529;28;20037;-51
2021/06/01 04:33:33;;;;;;;3.50;2.10;;;;;;;22.29;55.84;99251.19;2082492;28;20036;-51
2021/06/01 04:34:34;;;;;;;2.97;2.00;;;;;;;22.29;55.55;99245.72;2081024;28;20469;-51
2021/06/01 04:35:34;;;;;;;2.50;2.17;;;;;;;22.30;55.68;99249.34;2085062;28;20486;-51
2021/06/01 04:36:35;;;;;;;2.53;2.33;;;;;;;22.29;55.74;99242.13;2088120;28;20163;-49
2021/06/01 04:37:35;;;;;;;5.70;2.30;;;;;;;22.29;55.70;99244.88;2080166;28;20446;-51
2021/06/01 04:38:35;;;;;;;3.13;2.23;;;;;;;22.28;55.69;99238.53;2084031;28;20049;-48
2021/06/01 04:39:36;;;;;;;2.83;2.10;;;;;;;22.28;55.85;99240.44;2082530;28;20648;-48
2021/06/01 04:40:36;;;;;;;2.80;2.10;;;;;;;22.28;55.65;99238.53;2082280;28;20029;-51
2021/06/01 04:41:38;;;;;;;2.77;2.53;;;;;;;22.28;55.90;99244.03;2080026;28;20375;-49
2021/06/01 04:42:38;;;;;;;2.50;2.28;;;;;;;22.29;55.76;99242.13;2085182;28;20033;-52
2021/06/01 04:43:38;;;;;;;3.13;2.43;;;;;;;22.28;55.80;99245.91;2081442;28;20600;-48
2021/06/01 04:44:39;;;;;;;4.20;2.53;;;;;;;22.28;55.77;99248.66;2080257;28;20029;-48
2021/06/01 04:45:39;;;;;;;2.60;2.40;;;;;;;22.29;55.64;99247.59;2085844;28;20289;-51
2021/06/01 04:46:40;;;;;;;4.90;2.47;;;;;;;22.27;55.66;99242.34;2089360;28;20028;-49
2021/06/01 04:47:41;;;;;;;2.43;2.23;;;;;;;22.28;55.72;99243.19;2085761;28;20347;-50
2021/06/01 04:48:42;;;;;;;2.97;2.05;;;;;;;22.28;55.56;99243.19;2080866;28;20371;-52
2021/06/01 04:49:42;;;;;;;3.03;2.60;;;;;;;22.28;56.01;99241.28;2084150;28;20041;-48
2021/06/01 04:50:43;;;;;;;2.83;2.30;;;;;;;22.28;55.88;99234.94;2082878;28;20033;-50
2021/06/01 04:51:43;;;;;;;2.67;2.40;;;;;;;22.26;55.72;99232.38;2082107;28;20041;-49
2021/06/01 04:52:44;;;;;;;2.00;1.80;;;;;;;22.26;55.88;99241.44;2086965;28;20376;-51
2021/06/01 04:53:52;;;;;;;5.03;2.50;;;;;;;22.24;55.68;99232.59;2079290;28;20036;-50
2021/06/01 04:54:52;;;;;;;2.42;2.05;;;;;;;22.28;55.87;99237.69;2080877;28;20038;-50
2021/06/01 04:55:53;;;;;;;2.90;2.37;;;;;;;22.27;55.79;99236.84;2084696;28;20039;-49
2021/06/01 04:56:53;;;;;;;2.73;2.00;;;;;;;22.26;55.79;99235.13;2086224;28;20344;-52
2021/06/01 04:57:54;;;;;;;3.50;2.20;;;;;;;22.26;55.68;99235.97;2086922;28;20443;-49
2021/06/01 04:58:56;;;;;;;2.83;2.00;;;;;;;22.26;55.64;99230.47;2085001;28;20054;-49
2021/06/01 04:59:56;;;;;;;2.33;2.00;;;;;;;22.26;55.88;99233.22;2083477;28;20140;-52
2021/06/01 05:00:56;;;;;;;4.73;2.03;;;;;;;22.26;55.76;99224.97;2083937;28;20037;-50